Time;durP1;ratioP1;P1;durP2;ratioP2;P2;SDS_P1;SDS_P2;PMS_P1;PMS_P2;Temp;Humidity;BMP_temperature;BMP_pressure;BME280_temperature;BME280_humidity;BME280_pressure;Samples;Min_cycle;Max_cycle;Signal;HPM_P1;HPM_P2
2022/10/23 00:01:14;;;;;;;3.80;2.30;;;21.60;55.60;;;;;;5051225;28;20029;-49
2022/10/23 00:03:40;;;;;;;3.47;2.00;;;21.50;55.60;;;;;;5048744;28;20127;-53
2022/10/23 00:06:06;;;;;;;3.38;1.92;;;21.50;55.60;;;;;;5051356;28;20055;-50
2022/10/23 00:08:32;;;;;;;4.05;1.80;;;21.50;55.60;;;;;;5050779;28;20104;-50
2022/10/23 00:10:58;;;;;;;3.25;1.98;;;21.50;55.60;;;;;;5050689;28;20033;-51
2022/10/23 00:13:24;;;;;;;3.80;1.90;;;21.50;55.70;;;;;;5051195;28;20029;-54
2022/10/23 00:15:50;;;;;;;2.85;1.60;;;21.50;55.70;;;;;;5051989;28;20052;-50
2022/10/23 00:18:16;;;;;;;2.97;1.90;;;21.50;55.60;;;;;;5050084;28;20047;-49
2022/10/23 00:20:41;;;;;;;3.38;1.98;;;21.50;55.60;;;;;;5050477;28;20025;-50
2022/10/23 00:23:07;;;;;;;3.17;1.63;;;21.40;55.60;;;;;;5051219;28;20068;-50
2022/10/23 00:25:33;;;;;;;4.05;2.10;;;21.50;55.70;;;;;;5050593;28;20025;-51
2022/10/23 00:27:59;;;;;;;2.85;1.90;;;21.50;55.70;;;;;;5051273;28;20070;-51
2022/10/23 00:30:25;;;;;;;3.20;2.10;;;21.40;55.60;;;;;;5049090;28;20037;-49
2022/10/23 00:32:51;;;;;;;3.15;1.73;;;21.50;56.30;;;;;;5050995;28;20049;-48
2022/10/23 00:35:19;;;;;;;3.20;1.90;;;21.40;55.60;;;;;;5044758;28;20425;-54
2022/10/23 00:37:44;;;;;;;3.55;1.80;;;21.40;55.60;;;;;;5049989;28;20104;-49
2022/10/23 00:40:11;;;;;;;4.50;1.90;;;21.40;55.60;;;;;;5051233;28;20029;-52
2022/10/23 00:42:37;;;;;;;3.85;1.80;;;21.40;55.70;;;;;;5050891;28;20460;-48
2022/10/23 00:45:21;;;;;;;3.95;1.80;;;21.40;55.70;;;;;;5050761;28;20043;-51
2022/10/23 00:47:48;;;;;;;3.63;2.10;;;21.40;55.70;;;;;;5050052;28;20033;-51
2022/10/23 00:50:14;;;;;;;3.47;1.65;;;21.40;55.70;;;;;;5049911;28;20886;-49
2022/10/23 00:52:47;;;;;;;3.40;1.63;;;21.40;55.70;;;;;;5050365;28;20035;-48
2022/10/23 00:55:14;;;;;;;4.00;1.90;;;21.40;55.70;;;;;;5050254;28;20047;-50
2022/10/23 00:57:42;;;;;;;2.92;2.05;;;21.40;55.70;;;;;;5047262;28;20112;-48
2022/10/23 01:00:13;;;;;;;3.13;1.70;;;21.30;55.60;;;;;;5048513;28;20487;-52
2022/10/23 01:02:38;;;;;;;3.05;1.70;;;21.40;55.70;;;;;;5049940;28;20053;-49
2022/10/23 01:05:05;;;;;;;2.63;1.73;;;21.30;55.60;;;;;;5049026;28;20411;-53
2022/10/23 01:07:44;;;;;;;3.05;1.67;;;21.40;55.70;;;;;;5049944;28;20023;-49
2022/10/23 01:10:35;;;;;;;3.75;1.80;;;21.30;55.60;;;;;;5049556;28;20526;-47
2022/10/23 01:13:33;;;;;;;2.65;1.80;;;21.30;56.20;;;;;;5049086;28;20053;-52
2022/10/23 01:16:15;;;;;;;2.45;1.55;;;21.30;55.70;;;;;;4994009;28;20125;-51
2022/10/23 01:19:04;;;;;;;4.13;1.83;;;21.30;55.60;;;;;;5012001;28;20029;-48
2022/10/23 01:21:35;;;;;;;2.95;1.75;;;21.30;55.60;;;;;;5029898;28;20076;-50
2022/10/23 01:24:21;;;;;;;3.50;1.70;;;21.30;55.70;;;;;;5030404;28;20119;-51
2022/10/23 01:27:00;;;;;;;2.38;1.48;;;21.30;55.70;;;;;;5010803;28;20025;-49
2022/10/23 01:29:50;;;;;;;3.33;1.92;;;21.30;55.70;;;;;;5030619;28;20033;-53
2022/10/23 01:32:39;;;;;;;3.00;1.50;;;21.30;55.70;;;;;;5022506;28;20360;-48
2022/10/23 01:35:17;;;;;;;3.53;1.80;;;21.30;55.70;;;;;;5013134;28;20111;-50
2022/10/23 01:38:13;;;;;;;3.00;1.60;;;21.30;55.70;;;;;;5022958;28;20034;-53
2022/10/23 01:41:01;;;;;;;3.75;1.40;;;21.30;55.80;;;;;;4975890;28;20361;-49
2022/10/23 01:43:46;;;;;;;3.17;1.50;;;21.20;55.70;;;;;;5029245;28;20045;-51
2022/10/23 01:46:16;;;;;;;2.63;1.83;;;21.20;55.70;;;;;;5002568;28;20025;-52
2022/10/23 01:48:50;;;;;;;3.10;1.60;;;21.20;55.70;;;;;;5029259;28;20029;-51
2022/10/23 01:51:20;;;;;;;1.88;1.35;;;21.20;55.70;;;;;;5004176;28;20036;-51
2022/10/23 01:53:49;;;;;;;3.00;1.60;;;21.20;55.70;;;;;;5012053;28;20034;-52
2022/10/23 01:56:25;;;;;;;2.13;1.33;;;21.20;55.70;;;;;;5012259;28;20030;-51
2022/10/23 01:58:54;;;;;;;3.42;1.70;;;21.20;55.70;;;;;;5010970;28;20029;-52
2022/10/23 02:01:24;;;;;;;2.30;1.50;;;21.20;55.70;;;;;;5010892;28;20047;-48
2022/10/23 02:03:53;;;;;;;2.45;1.40;;;21.20;55.70;;;;;;5008955;28;20037;-49
2022/10/23 02:06:19;;;;;;;2.70;1.73;;;21.20;55.70;;;;;;5012008;28;20123;-51
2022/10/23 02:08:45;;;;;;;3.85;1.80;;;21.20;55.70;;;;;;5028859;28;20100;-50
2022/10/23 02:11:17;;;;;;;2.83;1.30;;;21.20;55.70;;;;;;5020328;28;20045;-49
2022/10/23 02:14:00;;;;;;;3.65;1.48;;;21.20;55.70;;;;;;5030839;28;20341;-48
2022/10/23 02:16:51;;;;;;;3.27;1.80;;;21.20;55.70;;;;;;5048636;28;20138;-50
2022/10/23 02:19:20;;;;;;;2.88;1.80;;;21.20;55.70;;;;;;5029615;28;20124;-49
2022/10/23 02:22:01;;;;;;;2.45;1.50;;;21.20;55.70;;;;;;5033685;28;20040;-46
2022/10/23 02:24:50;;;;;;;2.45;1.50;;;21.10;55.70;;;;;;5049315;28;20037;-47
2022/10/23 02:27:22;;;;;;;2.45;1.13;;;21.20;55.70;;;;;;5049425;28;20033;-47
2022/10/23 02:29:58;;;;;;;3.45;1.75;;;21.10;55.70;;;;;;5037264;28;20026;-49
2022/10/23 02:32:26;;;;;;;3.20;1.40;;;21.10;55.70;;;;;;5053482;28;20033;-49
2022/10/23 02:34:53;;;;;;;3.13;1.50;;;21.10;55.90;;;;;;5050801;28;20051;-47
2022/10/23 02:37:19;;;;;;;4.15;1.70;;;21.10;55.70;;;;;;5051927;28;20188;-48
2022/10/23 02:39:45;;;;;;;2.70;1.50;;;21.10;55.70;;;;;;5051919;28;20115;-47
2022/10/23 02:42:22;;;;;;;2.65;1.30;;;21.10;55.70;;;;;;5051406;28;20240;-50
2022/10/23 02:45:01;;;;;;;1.90;1.20;;;21.10;55.70;;;;;;5052286;28;20108;-48
2022/10/23 02:47:39;;;;;;;2.75;1.52;;;21.10;55.70;;;;;;5052378;28;20040;-48
2022/10/23 02:50:33;;;;;;;2.58;1.73;;;21.10;55.70;;;;;;5052068;28;20020;-49
2022/10/23 02:53:22;;;;;;;2.93;1.73;;;21.10;55.70;;;;;;5052822;28;20104;-49
2022/10/23 02:55:50;;;;;;;4.10;1.48;;;21.10;55.70;;;;;;5045256;28;20029;-47
2022/10/23 02:58:34;;;;;;;2.17;1.55;;;21.10;55.70;;;;;;5053324;28;20372;-50
2022/10/23 03:01:23;;;;;;;2.67;1.35;;;21.10;55.80;;;;;;5054325;28;20040;-48
2022/10/23 03:03:56;;;;;;;2.50;1.52;;;21.10;55.70;;;;;;5036084;28;20368;-49
2022/10/23 03:06:23;;;;;;;3.10;1.43;;;21.10;55.70;;;;;;5051708;28;20024;-48
2022/10/23 03:08:57;;;;;;;2.83;1.20;;;21.10;55.70;;;;;;5050916;28;20287;-49
2022/10/23 03:11:25;;;;;;;2.17;1.33;;;21.10;55.70;;;;;;5051386;28;20501;-49
2022/10/23 03:13:51;;;;;;;3.47;1.20;;;21.10;55.70;;;;;;5051801;28;20021;-50
2022/10/23 03:16:17;;;;;;;5.40;1.40;;;21.10;55.70;;;;;;5044994;28;20033;-49
2022/10/23 03:18:48;;;;;;;3.05;1.60;;;21.10;55.70;;;;;;5050913;28;20119;-50
2022/10/23 03:21:14;;;;;;;2.13;1.40;;;21.10;55.70;;;;;;5050577;28;20128;-48
2022/10/23 03:23:40;;;;;;;2.90;1.35;;;21.10;55.70;;;;;;5052092;28;20342;-53
2022/10/23 03:26:06;;;;;;;1.88;1.45;;;21.00;55.60;;;;;;5052223;28;20036;-48
2022/10/23 03:28:39;;;;;;;2.55;1.42;;;21.10;55.70;;;;;;5051531;28;20025;-47
2022/10/23 03:31:05;;;;;;;5.10;1.65;;;21.10;56.30;;;;;;5051495;28;20032;-50
2022/10/23 03:33:31;;;;;;;2.47;1.42;;;21.10;55.70;;;;;;5052891;28;20025;-50
2022/10/23 03:36:06;;;;;;;2.28;1.30;;;21.00;55.60;;;;;;5050858;28;20342;-47
2022/10/23 03:38:32;;;;;;;3.22;1.63;;;21.10;55.70;;;;;;5051280;28;20029;-50
2022/10/23 03:40:58;;;;;;;2.38;1.42;;;21.10;55.70;;;;;;5050274;28;20352;-49
2022/10/23 03:43:23;;;;;;;1.58;1.10;;;21.00;55.60;;;;;;5052090;28;20037;-52
2022/10/23 03:45:50;;;;;;;1.95;1.30;;;21.10;55.70;;;;;;5052529;28;20036;-47
2022/10/23 03:48:17;;;;;;;3.10;1.42;;;21.00;55.70;;;;;;5051568;28;20333;-49
2022/10/23 03:50:43;;;;;;;2.78;1.30;;;21.00;55.80;;;;;;5047793;28;20021;-50
2022/10/23 03:53:10;;;;;;;2.17;1.55;;;21.10;55.70;;;;;;5050796;28;20033;-50
2022/10/23 03:55:36;;;;;;;1.92;1.23;;;21.00;55.70;;;;;;5049560;28;20062;-50
2022/10/23 03:58:02;;;;;;;2.97;1.80;;;21.00;55.70;;;;;;5051964;28;21811;-50
2022/10/23 04:00:27;;;;;;;3.00;1.48;;;21.00;55.70;;;;;;5038745;28;20024;-50
2022/10/23 04:02:53;;;;;;;2.10;1.13;;;21.00;55.70;;;;;;5050957;28;20511;-50
2022/10/23 04:05:19;;;;;;;4.00;1.67;;;21.10;55.70;;;;;;5048303;28;20021;-49
2022/10/23 04:07:53;;;;;;;2.40;1.20;;;21.00;55.70;;;;;;5051049;28;20055;-48
2022/10/23 04:10:19;;;;;;;2.67;1.42;;;21.00;55.70;;;;;;5047712;28;20025;-49
2022/10/23 04:12:44;;;;;;;2.53;1.40;;;21.00;55.70;;;;;;5050899;28;20052;-52
2022/10/23 04:15:11;;;;;;;2.22;1.17;;;21.00;55.70;;;;;;5050093;28;20067;-49
2022/10/23 04:17:39;;;;;;;2.13;1.15;;;21.00;55.70;;;;;;5050158;28;20025;-50
2022/10/23 04:20:05;;;;;;;3.15;1.25;;;21.00;55.70;;;;;;5049147;28;20033;-50
2022/10/23 04:22:31;;;;;;;2.28;1.40;;;21.00;55.80;;;;;;5051400;28;20120;-49
2022/10/23 04:24:57;;;;;;;2.58;1.20;;;21.00;55.80;;;;;;5050780;28;20053;-48
2022/10/23 04:27:23;;;;;;;2.65;1.25;;;21.00;55.80;;;;;;5050049;28;21027;-50
2022/10/23 04:29:49;;;;;;;2.78;1.50;;;21.00;55.80;;;;;;5045547;28;20024;-52
2022/10/23 04:32:15;;;;;;;2.58;1.20;;;21.00;55.90;;;;;;5048383;28;20448;-51
2022/10/23 04:34:43;;;;;;;3.55;1.10;;;21.00;55.80;;;;;;5050523;28;20025;-52
2022/10/23 04:37:08;;;;;;;2.35;1.33;;;21.00;55.90;;;;;;5050295;28;21813;-53
2022/10/23 04:39:34;;;;;;;2.97;1.50;;;21.00;55.90;;;;;;5049284;28;20032;-50
2022/10/23 04:42:00;;;;;;;2.72;1.25;;;20.90;55.80;;;;;;5050094;28;20037;-49
2022/10/23 04:44:26;;;;;;;4.57;1.58;;;20.90;55.90;;;;;;5050385;28;20547;-46
2022/10/23 04:46:52;;;;;;;2.85;1.60;;;20.90;55.80;;;;;;5050193;28;20103;-48
2022/10/23 04:49:17;;;;;;;2.70;1.20;;;20.90;55.80;;;;;;5049850;28;20140;-49
2022/10/23 04:52:18;;;;;;;3.72;2.00;;;20.90;55.90;;;;;;4968353;28;20112;-50
2022/10/23 04:55:19;;;;;;;2.55;1.50;;;20.90;55.90;;;;;;4987989;28;20149;-48
2022/10/23 04:58:07;;;;;;;1.92;1.27;;;20.90;55.90;;;;;;5045230;28;20624;-52
2022/10/23 05:00:34;;;;;;;2.35;1.35;;;20.90;55.90;;;;;;5047313;28;20116;-50
2022/10/23 05:03:00;;;;;;;1.65;1.10;;;20.90;56.00;;;;;;5049837;28;20448;-50
2022/10/23 05:05:33;;;;;;;2.08;1.52;;;20.90;56.00;;;;;;5049905;28;20024;-53
2022/10/23 05:08:04;;;;;;;4.57;1.30;;;20.90;56.00;;;;;;5048712;28;20090;-52
2022/10/23 05:10:58;;;;;;;3.58;1.55;;;20.90;56.00;;;;;;5048832;28;20029;-51
2022/10/23 05:13:24;;;;;;;1.85;1.10;;;20.90;56.00;;;;;;5047666;28;20345;-53
2022/10/23 05:15:52;;;;;;;2.40;1.48;;;20.90;56.30;;;;;;5050696;28;20110;-52
2022/10/23 05:18:28;;;;;;;2.50;1.25;;;20.90;56.10;;;;;;5048179;28;20041;-52
2022/10/23 05:21:01;;;;;;;4.25;1.35;;;20.90;56.10;;;;;;5050898;28;20040;-52
2022/10/23 05:23:31;;;;;;;3.30;1.33;;;20.90;56.10;;;;;;5049870;28;20483;-52
2022/10/23 05:26:02;;;;;;;3.42;1.30;;;20.90;56.10;;;;;;5049637;28;20043;-52
2022/10/23 05:28:29;;;;;;;3.30;1.42;;;20.90;56.10;;;;;;5046579;28;20025;-51
2022/10/23 05:30:58;;;;;;;3.30;1.08;;;20.90;56.10;;;;;;5048865;28;20052;-53
2022/10/23 05:33:28;;;;;;;2.55;1.40;;;20.90;56.20;;;;;;5046660;28;20037;-50
2022/10/23 05:35:54;;;;;;;2.13;1.30;;;20.90;56.20;;;;;;5055921;28;20104;-53
2022/10/23 05:38:21;;;;;;;2.00;1.30;;;20.90;56.20;;;;;;5049006;28;20115;-54
2022/10/23 05:40:50;;;;;;;3.03;1.30;;;20.90;56.20;;;;;;5048253;28;20025;-51
2022/10/23 05:43:18;;;;;;;2.65;1.48;;;20.90;56.20;;;;;;5038199;28;20052;-50
2022/10/23 05:45:50;;;;;;;3.45;1.33;;;20.90;56.30;;;;;;5048770;28;20083;-49
2022/10/23 05:48:32;;;;;;;3.58;1.38;;;20.90;56.30;;;;;;5050243;28;20040;-50
2022/10/23 05:51:09;;;;;;;2.95;1.27;;;20.90;56.30;;;;;;5049207;28;20052;-51
2022/10/23 05:54:10;;;;;;;2.65;1.40;;;20.80;56.30;;;;;;5007338;28;20161;-51
2022/10/23 05:57:05;;;;;;;3.28;1.50;;;20.80;56.30;;;;;;4977168;28;20106;-51
2022/10/23 05:59:41;;;;;;;2.17;1.20;;;20.80;56.30;;;;;;5047802;28;20036;-53
2022/10/23 06:02:38;;;;;;;3.08;1.45;;;20.90;56.40;;;;;;5049564;28;20060;-53
2022/10/23 06:05:12;;;;;;;3.28;1.33;;;20.80;56.40;;;;;;5050525;28;20111;-52
2022/10/23 06:08:07;;;;;;;2.80;1.60;;;20.80;56.50;;;;;;5037954;28;20123;-52
2022/10/23 06:10:33;;;;;;;2.60;1.10;;;20.90;56.50;;;;;;5051380;28;20111;-50
2022/10/23 06:13:02;;;;;;;2.53;1.42;;;20.80;56.50;;;;;;5049457;28;20495;-53
2022/10/23 06:15:28;;;;;;;2.83;1.50;;;20.90;56.60;;;;;;5050464;28;20045;-49
2022/10/23 06:18:03;;;;;;;2.50;1.30;;;20.80;56.60;;;;;;5051930;28;20024;-52
2022/10/23 06:20:37;;;;;;;1.67;1.20;;;20.80;56.70;;;;;;5052305;28;20504;-50
2022/10/23 06:23:15;;;;;;;2.85;1.40;;;20.80;56.70;;;;;;5053797;28;20045;-50
2022/10/23 06:25:58;;;;;;;3.72;1.50;;;20.80;56.70;;;;;;5052420;28;20108;-50
2022/10/23 06:28:42;;;;;;;2.90;1.45;;;20.80;56.80;;;;;;5056694;28;20033;-50
2022/10/23 06:31:09;;;;;;;5.03;1.83;;;20.80;56.80;;;;;;5053927;28;20440;-51
2022/10/23 06:33:35;;;;;;;3.20;1.38;;;20.90;57.00;;;;;;5047351;28;20032;-49
2022/10/23 06:36:04;;;;;;;7.18;1.60;;;20.80;56.90;;;;;;5051903;28;20031;-52
2022/10/23 06:38:36;;;;;;;5.47;1.75;;;20.90;57.00;;;;;;5050468;28;20045;-52
2022/10/23 06:41:04;;;;;;;2.40;1.58;;;20.90;57.00;;;;;;5060481;28;20456;-52
2022/10/23 06:43:34;;;;;;;3.15;1.60;;;20.80;56.90;;;;;;5051942;28;20033;-51
2022/10/23 06:46:28;;;;;;;6.45;2.10;;;20.80;56.90;;;;;;5047711;28;20142;-49
2022/10/23 06:49:14;;;;;;;3.05;1.80;;;20.80;56.90;;;;;;5050664;28;20103;-52
2022/10/23 06:51:45;;;;;;;3.72;1.98;;;20.90;57.00;;;;;;5041557;28;20571;-51
2022/10/23 06:54:13;;;;;;;3.85;1.70;;;20.80;57.00;;;;;;5043460;28;20025;-47
2022/10/23 06:56:48;;;;;;;3.55;1.80;;;20.80;57.00;;;;;;5049511;28;20033;-51
2022/10/23 06:59:18;;;;;;;3.25;1.58;;;20.80;57.00;;;;;;5043971;28;20115;-50
2022/10/23 07:01:44;;;;;;;4.15;1.70;;;20.80;57.00;;;;;;5041541;28;20037;-48
2022/10/23 07:04:13;;;;;;;3.83;1.55;;;20.80;57.00;;;;;;5047239;28;20577;-51
2022/10/23 07:06:40;;;;;;;3.22;1.65;;;20.80;57.10;;;;;;5051073;28;20017;-49
2022/10/23 07:09:07;;;;;;;3.47;1.70;;;20.90;57.20;;;;;;5055683;28;20041;-50
2022/10/23 07:11:51;;;;;;;3.53;1.83;;;20.90;57.20;;;;;;5041300;28;20041;-53
2022/10/23 07:14:19;;;;;;;4.25;1.80;;;20.80;57.20;;;;;;5036850;28;20103;-51
2022/10/23 07:16:45;;;;;;;4.68;2.03;;;20.90;57.40;;;;;;5040355;28;20021;-48
2022/10/23 07:19:12;;;;;;;4.40;1.77;;;20.80;57.40;;;;;;5054291;28;20036;-48
2022/10/23 07:22:10;;;;;;;3.38;1.55;;;20.90;57.40;;;;;;5025560;28;20052;-47
2022/10/23 07:24:54;;;;;;;3.40;1.77;;;20.90;57.40;;;;;;5036796;28;20022;-49
2022/10/23 07:27:27;;;;;;;6.30;2.40;;;20.90;57.40;;;;;;5044395;28;20515;-51
2022/10/23 07:29:55;;;;;;;4.32;1.58;;;20.80;57.40;;;;;;5055940;28;20083;-50
2022/10/23 07:32:23;;;;;;;4.20;2.00;;;20.80;57.40;;;;;;5045816;28;20035;-49
2022/10/23 07:35:11;;;;;;;5.82;2.20;;;20.80;57.50;;;;;;5024759;28;20456;-52
2022/10/23 07:37:39;;;;;;;4.22;1.70;;;20.80;57.40;;;;;;5056114;28;20033;-50
2022/10/23 07:40:05;;;;;;;5.32;2.03;;;20.80;57.50;;;;;;5055737;28;20099;-51
2022/10/23 07:42:37;;;;;;;5.13;2.20;;;20.80;57.50;;;;;;5056264;28;20127;-50
2022/10/23 07:45:05;;;;;;;4.63;1.90;;;20.90;57.60;;;;;;5052579;28;20480;-52
2022/10/23 07:47:31;;;;;;;3.67;1.70;;;20.80;57.50;;;;;;5056675;28;20171;-48
2022/10/23 07:49:58;;;;;;;5.63;2.33;;;20.80;57.50;;;;;;5044207;28;20045;-50
2022/10/23 07:52:24;;;;;;;5.20;1.98;;;20.80;57.60;;;;;;5055673;28;20029;-49
2022/10/23 07:55:10;;;;;;;5.40;2.13;;;20.80;57.60;;;;;;5056802;28;20041;-51
2022/10/23 07:57:42;;;;;;;5.40;2.20;;;20.90;57.70;;;;;;5039987;28;20025;-51
2022/10/23 08:00:22;;;;;;;3.67;2.25;;;20.90;57.70;;;;;;5055380;28;20076;-53
2022/10/23 08:02:55;;;;;;;4.05;2.25;;;20.90;57.60;;;;;;5055624;28;20048;-49
2022/10/23 08:05:21;;;;;;;4.03;2.00;;;20.90;57.60;;;;;;5053101;28;20028;-49
2022/10/23 08:07:56;;;;;;;4.60;2.03;;;20.80;57.50;;;;;;5044207;28;20029;-51
2022/10/23 08:10:22;;;;;;;4.95;2.08;;;20.90;57.50;;;;;;5055218;28;20179;-52
2022/10/23 08:12:48;;;;;;;3.42;1.85;;;20.90;57.40;;;;;;5050049;28;20028;-50
2022/10/23 08:15:16;;;;;;;4.45;1.98;;;20.90;57.40;;;;;;5054731;28;20087;-53
2022/10/23 08:17:50;;;;;;;2.85;1.83;;;20.90;57.40;;;;;;5046735;28;20036;-52
2022/10/23 08:20:22;;;;;;;3.42;1.75;;;20.90;57.40;;;;;;5052531;28;20033;-53
2022/10/23 08:22:49;;;;;;;3.10;1.80;;;20.90;57.30;;;;;;5044316;28;20037;-51
2022/10/23 08:25:21;;;;;;;10.30;2.05;;;20.90;57.30;;;;;;5054910;28;20028;-53
2022/10/23 08:27:46;;;;;;;3.97;2.03;;;20.90;57.30;;;;;;5052966;28;20479;-53
2022/10/23 08:30:14;;;;;;;3.95;1.83;;;20.90;57.30;;;;;;5045809;28;20056;-46
2022/10/23 08:32:39;;;;;;;3.88;1.77;;;20.90;57.30;;;;;;5055254;28;20033;-47
2022/10/23 08:35:06;;;;;;;3.92;1.98;;;20.90;57.40;;;;;;5053832;28;20028;-58
2022/10/23 08:37:32;;;;;;;3.88;1.70;;;20.90;57.50;;;;;;5054876;28;20057;-57
2022/10/23 08:39:58;;;;;;;3.70;1.40;;;20.90;57.40;;;;;;5056478;28;20065;-47
2022/10/23 08:42:51;;;;;;;4.80;1.95;;;20.90;57.20;;;;;;5053455;28;20079;-52
2022/10/23 08:45:30;;;;;;;3.42;2.03;;;20.80;57.20;;;;;;5054640;28;20028;-47
2022/10/23 08:48:13;;;;;;;35.13;20.10;;;20.90;57.40;;;;;;5055037;28;20025;-48
2022/10/23 08:51:15;;;;;;;35.72;19.10;;;20.90;58.40;;;;;;5028859;28;20135;-45
2022/10/23 08:54:02;;;;;;;29.95;17.33;;;20.90;60.50;;;;;;5056074;28;20055;-51
2022/10/23 08:56:38;;;;;;;26.23;14.20;;;20.90;61.20;;;;;;5053817;28;20436;-48
2022/10/23 08:59:23;;;;;;;25.83;13.38;;;21.00;61.80;;;;;;5053770;28;20033;-47
2022/10/23 09:01:58;;;;;;;27.52;12.30;;;21.00;62.50;;;;;;5054891;28;20044;-46
2022/10/23 09:04:24;;;;;;;;;;;21.00;63.30;;;;;;5049969;28;20472;-48
2022/10/23 09:07:03;;;;;;;21.55;9.63;;;21.00;63.80;;;;;;5053840;28;19909;-50
2022/10/23 09:09:29;;;;;;;20.40;8.70;;;21.10;63.70;;;;;;5052537;28;20091;-47
2022/10/23 09:12:16;;;;;;;17.55;8.25;;;21.00;63.20;;;;;;5053897;28;20341;-53
2022/10/23 09:15:11;;;;;;;19.10;8.43;;;21.10;63.20;;;;;;5053883;28;20419;-49
2022/10/23 09:17:39;;;;;;;17.27;7.40;;;21.10;63.50;;;;;;5051806;28;20451;-51
2022/10/23 09:20:23;;;;;;;14.40;7.10;;;21.10;63.90;;;;;;5054257;28;20044;-53
2022/10/23 09:22:57;;;;;;;29.20;10.55;;;21.10;63.90;;;;;;5034932;28;20137;-48
2022/10/23 09:25:27;;;;;;;29.13;12.10;;;21.20;64.40;;;;;;5051165;28;20070;-48
2022/10/23 09:27:56;;;;;;;25.52;10.70;;;21.20;65.30;;;;;;5054439;28;20459;-48
2022/10/23 09:30:34;;;;;;;22.27;10.63;;;21.20;65.80;;;;;;5054172;28;20028;-50
2022/10/23 09:33:13;;;;;;;29.77;12.07;;;21.20;66.30;;;;;;5054944;28;20348;-52
2022/10/23 09:36:01;;;;;;;27.15;11.27;;;21.20;66.60;;;;;;5054378;28;20452;-48
2022/10/23 09:38:47;;;;;;;25.75;10.60;;;21.30;66.90;;;;;;5050543;28;20036;-49
2022/10/23 09:41:19;;;;;;;20.60;9.18;;;21.30;67.10;;;;;;5051118;28;20033;-49
2022/10/23 09:43:45;;;;;;;18.77;8.18;;;21.30;66.80;;;;;;5054707;28;20456;-52
2022/10/23 09:46:11;;;;;;;15.73;7.35;;;21.40;66.20;;;;;;5051219;28;20036;-53
2022/10/23 09:48:41;;;;;;;12.95;6.22;;;21.30;65.60;;;;;;5042708;28;20112;-53
2022/10/23 09:51:19;;;;;;;12.38;6.22;;;21.40;65.10;;;;;;5053782;28;20123;-48
2022/10/23 09:53:55;;;;;;;14.10;5.90;;;21.40;64.60;;;;;;5054362;28;20032;-51
2022/10/23 09:56:32;;;;;;;11.93;5.43;;;21.40;64.30;;;;;;5055151;28;20054;-53
2022/10/23 09:59:05;;;;;;;10.10;5.20;;;21.40;63.90;;;;;;5054716;28;20113;-52
2022/10/23 10:01:37;;;;;;;10.98;5.10;;;21.40;63.60;;;;;;5052833;28;20348;-50
2022/10/23 10:04:36;;;;;;;10.98;5.55;;;21.40;63.40;;;;;;5051320;28;20116;-51
2022/10/23 10:07:04;;;;;;;9.93;4.40;;;21.40;63.00;;;;;;5048209;28;20473;-60
2022/10/23 10:09:42;;;;;;;8.13;3.65;;;21.40;62.80;;;;;;5052254;28;20040;-60
2022/10/23 10:12:42;;;;;;;6.07;3.10;;;21.40;62.50;;;;;;5053192;28;20021;-52
2022/10/23 10:15:27;;;;;;;7.00;3.13;;;21.30;61.90;;;;;;5049896;28;20138;-53
2022/10/23 10:18:18;;;;;;;6.35;3.30;;;21.30;61.20;;;;;;5049641;28;20029;-55
2022/10/23 10:21:17;;;;;;;6.25;2.85;;;21.30;60.80;;;;;;5048266;28;20033;-53
2022/10/23 10:23:54;;;;;;;13.38;5.18;;;21.30;60.50;;;;;;5049101;28;20124;-53
2022/10/23 10:26:46;;;;;;;12.25;5.18;;;21.30;60.40;;;;;;5050205;28;20025;-53
2022/10/23 10:29:38;;;;;;;12.75;5.15;;;21.40;60.40;;;;;;5046172;28;20035;-49
2022/10/23 10:32:13;;;;;;;9.85;4.72;;;21.40;60.50;;;;;;5048951;28;20041;-50
2022/10/23 10:35:02;;;;;;;11.48;4.20;;;21.40;60.50;;;;;;5054969;28;20033;-51
2022/10/23 10:37:39;;;;;;;8.77;3.92;;;21.40;60.20;;;;;;5054044;28;20457;-53
2022/10/23 10:40:20;;;;;;;9.32;3.95;;;21.40;60.10;;;;;;5054748;28;20408;-49
2022/10/23 10:43:25;;;;;;;9.90;3.70;;;21.40;59.90;;;;;;5053506;28;20044;-47
2022/10/23 10:46:05;;;;;;;8.65;3.53;;;21.40;59.80;;;;;;5054554;28;20036;-53
2022/10/23 10:48:39;;;;;;;6.72;3.25;;;21.40;59.70;;;;;;5054358;28;20032;-50
2022/10/23 10:51:26;;;;;;;10.48;3.10;;;21.40;59.60;;;;;;5054831;28;20048;-52
2022/10/23 10:54:13;;;;;;;8.00;3.50;;;21.40;59.50;;;;;;5057807;28;20365;-48
2022/10/23 10:56:43;;;;;;;7.18;2.72;;;21.40;59.30;;;;;;5057824;28;20036;-51
2022/10/23 10:59:27;;;;;;;8.13;3.10;;;21.40;59.90;;;;;;5056415;28;20091;-52
2022/10/23 11:02:15;;;;;;;7.57;3.15;;;21.40;59.20;;;;;;5057770;28;20457;-50
2022/10/23 11:04:54;;;;;;;5.60;2.72;;;21.40;59.70;;;;;;5057494;28;20519;-52
2022/10/23 11:07:24;;;;;;;5.80;2.75;;;21.50;59.10;;;;;;5058321;28;20036;-49
2022/10/23 11:09:50;;;;;;;7.22;2.60;;;21.40;59.00;;;;;;5057775;28;20091;-49
2022/10/23 11:12:23;;;;;;;5.63;2.20;;;21.40;58.90;;;;;;5056625;28;20033;-51
2022/10/23 11:14:49;;;;;;;5.03;2.40;;;21.50;58.90;;;;;;5057344;28;20440;-52
2022/10/23 11:17:23;;;;;;;5.63;2.47;;;21.50;58.90;;;;;;5056900;28;20376;-52
2022/10/23 11:19:56;;;;;;;4.10;2.30;;;21.50;58.80;;;;;;5056391;28;20455;-52
2022/10/23 11:22:35;;;;;;;4.05;1.85;;;21.50;58.80;;;;;;5057519;28;20419;-53
2022/10/23 11:25:13;;;;;;;4.82;2.25;;;21.50;58.70;;;;;;5057800;28;20025;-51
2022/10/23 11:27:48;;;;;;;4.78;2.13;;;21.50;58.60;;;;;;5057538;28;20037;-51
2022/10/23 11:30:17;;;;;;;4.05;1.95;;;21.50;58.50;;;;;;5057327;28;20025;-51
2022/10/23 11:33:10;;;;;;;3.40;1.70;;;21.50;58.50;;;;;;5057788;28;20029;-52
2022/10/23 11:35:36;;;;;;;4.00;1.70;;;21.50;58.60;;;;;;5057080;28;20025;-53
2022/10/23 11:38:14;;;;;;;2.97;1.63;;;21.50;58.40;;;;;;5057244;28;20127;-52
2022/10/23 11:40:50;;;;;;;3.85;2.08;;;21.50;58.40;;;;;;5057627;28;20036;-51
2022/10/23 11:43:35;;;;;;;4.38;1.85;;;21.50;58.30;;;;;;5057354;28;20036;-52
2022/10/23 11:46:35;;;;;;;4.47;1.63;;;21.50;58.20;;;;;;5056136;28;20028;-53
2022/10/23 11:49:04;;;;;;;3.65;1.98;;;21.50;58.20;;;;;;5011973;28;20523;-52
2022/10/23 11:51:37;;;;;;;4.00;1.77;;;21.50;58.20;;;;;;5056966;28;20079;-51
2022/10/23 11:54:25;;;;;;;2.22;1.50;;;21.50;58.10;;;;;;5057214;28;20083;-52
2022/10/23 11:57:01;;;;;;;4.60;1.48;;;21.50;58.10;;;;;;5057176;28;20045;-50
2022/10/23 11:59:30;;;;;;;3.53;1.88;;;21.50;58.00;;;;;;5053841;28;20091;-51
2022/10/23 12:01:59;;;;;;;3.55;1.98;;;21.50;58.00;;;;;;5057604;28;20029;-49
2022/10/23 12:04:46;;;;;;;3.60;1.35;;;21.50;58.00;;;;;;5056892;28;20047;-49
2022/10/23 12:07:20;;;;;;;3.92;1.35;;;21.50;57.90;;;;;;5056812;28;20029;-50
2022/10/23 12:10:22;;;;;;;3.53;1.70;;;21.50;57.80;;;;;;5055226;28;20037;-48
2022/10/23 12:12:58;;;;;;;4.65;1.60;;;21.50;57.80;;;;;;5055709;28;20029;-52
2022/10/23 12:15:25;;;;;;;1.95;1.33;;;21.50;57.80;;;;;;5054407;28;20118;-53
2022/10/23 12:17:53;;;;;;;2.53;1.05;;;21.60;57.80;;;;;;5057069;28;20035;-53
2022/10/23 12:20:43;;;;;;;2.67;1.40;;;21.60;57.80;;;;;;5055498;28;20095;-51
2022/10/23 12:23:18;;;;;;;3.00;1.45;;;21.60;57.70;;;;;;5056666;28;20531;-50
2022/10/23 12:25:53;;;;;;;4.25;1.40;;;21.60;57.70;;;;;;5056545;28;20344;-53
2022/10/23 12:28:34;;;;;;;3.10;1.45;;;21.60;57.70;;;;;;5056686;28;20039;-48
2022/10/23 12:31:20;;;;;;;4.95;1.35;;;21.60;57.70;;;;;;5054380;28;20411;-52
2022/10/23 12:33:55;;;;;;;3.00;1.30;;;21.60;57.70;;;;;;5055925;28;20407;-53
2022/10/23 12:36:48;;;;;;;2.72;1.30;;;21.60;57.60;;;;;;5056251;28;20352;-50
2022/10/23 12:39:28;;;;;;;2.70;1.50;;;21.60;57.60;;;;;;5056416;28;20044;-52
2022/10/23 12:41:55;;;;;;;3.70;1.50;;;21.60;57.50;;;;;;5055882;28;20472;-51
2022/10/23 12:44:24;;;;;;;3.63;1.67;;;21.60;57.60;;;;;;5052941;28;20414;-52
2022/10/23 12:46:55;;;;;;;3.17;1.70;;;21.60;57.50;;;;;;5056343;28;20118;-50
2022/10/23 12:49:24;;;;;;;2.78;1.20;;;21.60;57.50;;;;;;5055060;28;20177;-53
2022/10/23 12:52:01;;;;;;;1.35;1.10;;;21.60;57.50;;;;;;5055011;28;20033;-52
2022/10/23 12:54:29;;;;;;;3.13;1.30;;;21.60;57.50;;;;;;5055645;28;20119;-52
2022/10/23 12:56:55;;;;;;;3.15;1.40;;;21.70;57.50;;;;;;5055576;28;20452;-52
2022/10/23 12:59:32;;;;;;;2.33;1.23;;;21.70;57.50;;;;;;5056062;28;20052;-52
2022/10/23 13:01:58;;;;;;;2.45;1.42;;;21.70;57.50;;;;;;5056479;28;20044;-53
2022/10/23 13:04:33;;;;;;;2.25;1.33;;;21.70;57.50;;;;;;5055548;28;20334;-51
2022/10/23 13:07:01;;;;;;;2.55;1.50;;;21.70;57.50;;;;;;5055237;28;20120;-52
2022/10/23 13:09:34;;;;;;;2.22;1.23;;;21.70;57.50;;;;;;5054751;28;20036;-52
2022/10/23 13:12:26;;;;;;;2.38;1.27;;;21.70;57.50;;;;;;5054783;28;20444;-53
2022/10/23 13:15:05;;;;;;;2.15;1.17;;;21.70;57.50;;;;;;5045032;28;20445;-53
2022/10/23 13:17:45;;;;;;;2.83;1.23;;;21.70;57.50;;;;;;5049398;28;20029;-53
2022/10/23 13:20:28;;;;;;;3.55;1.38;;;21.70;57.50;;;;;;5051936;28;20119;-50
2022/10/23 13:23:17;;;;;;;1.98;1.15;;;21.70;57.50;;;;;;5053895;28;20048;-48